Time;durP1;ratioP1;P1;durP2;ratioP2;P2;SDS_P1;SDS_P2;PMS_P1;PMS_P2;Temp;Humidity;BMP_temperature;BMP_pressure;BME280_temperature;BME280_humidity;BME280_pressure;Samples;Min_cycle;Max_cycle;Signal;HPM_P1;HPM_P2
2022/07/21 00:08:04;;;;;;;11.70;8.30;;;23.10;98.30;;;;;;20920609;28;20210;-71
2022/07/21 00:18:06;;;;;;;12.17;8.47;;;23.10;98.70;;;;;;20919173;28;20236;-70
2022/07/21 00:28:08;;;;;;;13.43;8.43;;;22.90;98.90;;;;;;20916772;28;20207;-70
2022/07/21 00:38:10;;;;;;;12.87;8.87;;;22.90;99.30;;;;;;20918045;28;20232;-69
2022/07/21 00:48:12;;;;;;;12.47;9.17;;;22.80;99.70;;;;;;20917214;28;20242;-71
2022/07/21 00:58:14;;;;;;;13.03;9.67;;;22.80;99.90;;;;;;20915239;28;20691;-70
2022/07/21 01:08:15;;;;;;;13.00;10.17;;;22.70;99.90;;;;;;20915678;28;20218;-74
2022/07/21 01:18:18;;;;;;;13.30;9.10;;;22.80;99.90;;;;;;20914584;28;20268;-74
2022/07/21 01:28:19;;;;;;;15.47;9.67;;;22.80;99.90;;;;;;20915630;28;20208;-73
2022/07/21 01:48:43;;;;;;;14.20;9.70;;;22.60;99.90;;;;;;20913096;28;20236;-73
2022/07/21 01:58:44;;;;;;;13.50;10.27;;;22.60;99.90;;;;;;20913004;28;20717;-71
2022/07/21 02:08:46;;;;;;;15.70;11.57;;;22.50;99.90;;;;;;20912148;28;20199;-70
2022/07/21 02:18:48;;;;;;;15.30;11.30;;;22.50;99.90;;;;;;20919137;28;20587;-70
2022/07/21 02:28:50;;;;;;;15.60;11.40;;;22.50;99.90;;;;;;21005440;28;20234;-73
2022/07/21 02:38:53;;;;;;;14.80;12.00;;;22.40;99.90;;;;;;21010250;28;20235;-71
2022/07/21 02:48:55;;;;;;;13.90;11.60;;;22.40;99.90;;;;;;21009604;28;20231;-74
2022/07/21 02:58:57;;;;;;;14.57;10.47;;;22.30;99.90;;;;;;21008917;28;20239;-73
2022/07/21 03:08:59;;;;;;;13.47;10.40;;;22.30;99.90;;;;;;21007849;28;20199;-72
2022/07/21 03:19:01;;;;;;;13.40;9.80;;;22.30;99.90;;;;;;21007050;28;20238;-72
2022/07/21 03:29:02;;;;;;;12.00;9.40;;;22.30;99.90;;;;;;21006583;28;20303;-73
2022/07/21 03:39:04;;;;;;;11.70;9.40;;;22.20;99.90;;;;;;21004720;28;20258;-73
2022/07/21 03:49:06;;;;;;;13.53;9.73;;;22.20;99.90;;;;;;21004809;28;20239;-72
2022/07/21 03:59:08;;;;;;;16.03;10.30;;;22.20;99.90;;;;;;21004223;28;20329;-72
2022/07/21 04:09:10;;;;;;;16.13;12.00;;;22.20;99.90;;;;;;21003232;28;20207;-71
2022/07/21 04:19:12;;;;;;;14.27;11.70;;;22.20;99.90;;;;;;20993837;28;20333;-72
2022/07/21 04:29:13;;;;;;;14.73;12.87;;;22.20;99.90;;;;;;20916022;28;20848;-72
2022/07/21 04:39:15;;;;;;;18.13;12.73;;;22.20;99.90;;;;;;20918484;28;20246;-70
2022/07/21 04:49:17;;;;;;;17.03;13.63;;;22.20;99.90;;;;;;20915712;28;20211;-71
2022/07/21 04:59:19;;;;;;;17.83;13.40;;;22.20;99.90;;;;;;20914958;28;20239;-71
2022/07/21 05:09:20;;;;;;;19.33;13.73;;;22.30;99.90;;;;;;20915510;28;20576;-71
2022/07/21 05:19:22;;;;;;;18.67;13.93;;;22.40;99.90;;;;;;20914043;28;20678;-71
2022/07/21 05:29:24;;;;;;;16.63;12.17;;;22.40;99.90;;;;;;20914518;28;20234;-76
2022/07/21 05:39:26;;;;;;;18.93;11.87;;;22.30;99.90;;;;;;20913249;28;20277;-75
2022/07/21 05:49:28;;;;;;;15.87;11.77;;;22.50;99.90;;;;;;20911895;28;20212;-68
2022/07/21 05:59:30;;;;;;;13.20;11.60;;;22.50;99.90;;;;;;20910553;28;20239;-69
2022/07/21 06:09:32;;;;;;;16.40;10.37;;;22.60;99.40;;;;;;20911671;28;20206;-68
2022/07/21 06:19:33;;;;;;;10.87;9.77;;;22.70;99.50;;;;;;20909817;28;20257;-69
2022/07/21 06:29:35;;;;;;;11.00;8.70;;;22.70;98.80;;;;;;20905433;28;20216;-69
2022/07/21 06:39:41;;;;;;;9.70;8.43;;;22.50;98.20;;;;;;20908903;28;20627;-69
2022/07/21 06:49:43;;;;;;;10.10;7.80;;;22.50;98.20;;;;;;20907803;28;20303;-68
2022/07/21 06:59:44;;;;;;;13.50;9.07;;;22.50;97.80;;;;;;20909586;28;20236;-70
2022/07/21 07:09:46;;;;;;;11.03;9.93;;;22.70;97.50;;;;;;20912638;28;20302;-70
2022/07/21 07:19:48;;;;;;;15.87;8.93;;;23.00;97.20;;;;;;20922499;28;20240;-69
2022/07/21 07:29:50;;;;;;;10.73;7.13;;;23.00;96.10;;;;;;20922386;28;20554;-69
2022/07/21 07:39:52;;;;;;;8.80;7.23;;;23.20;95.00;;;;;;20921626;28;20236;-69
2022/07/21 07:49:54;;;;;;;7.57;6.57;;;23.30;93.90;;;;;;20920185;28;20204;-68
2022/07/21 07:59:56;;;;;;;9.07;6.93;;;23.60;93.60;;;;;;20919018;28;20239;-69
2022/07/21 08:09:57;;;;;;;8.87;6.50;;;24.00;92.80;;;;;;20918886;28;20204;-70
2022/07/21 08:20:19;;;;;;;8.00;6.20;;;24.00;91.90;;;;;;20917599;28;20285;-70
2022/07/21 08:30:21;;;;;;;7.77;6.50;;;24.20;91.10;;;;;;20913112;28;20235;-70
2022/07/21 08:40:35;;;;;;;8.70;6.60;;;24.20;90.10;;;;;;20915929;28;20286;-71
2022/07/21 08:50:39;;;;;;;7.97;6.03;;;24.20;90.30;;;;;;20915270;28;20204;-68
2022/07/21 09:00:45;;;;;;;7.33;5.57;;;24.40;87.70;;;;;;20914572;28;20242;-69
2022/07/21 09:10:47;;;;;;;7.23;5.33;;;24.50;87.90;;;;;;20914038;28;20208;-70
2022/07/21 09:20:52;;;;;;;8.17;5.80;;;25.00;84.90;;;;;;20911515;28;20571;-70
2022/07/21 09:30:56;;;;;;;14.80;6.67;;;25.20;82.30;;;;;;20905137;28;20612;-69
2022/07/21 09:41:12;;;;;;;8.17;6.33;;;24.50;83.60;;;;;;20905013;28;20280;-70
2022/07/21 09:51:34;;;;;;;6.00;5.17;;;24.20;86.50;;;;;;20907263;28;20703;-70
2022/07/21 10:01:37;;;;;;;7.93;5.30;;;24.60;83.40;;;;;;20910052;28;20322;-70
2022/07/21 10:11:41;;;;;;;6.07;4.70;;;25.00;80.90;;;;;;20911241;28;20215;-69
2022/07/21 10:22:00;;;;;;;5.20;4.70;;;25.20;79.50;;;;;;20917427;28;20249;-69
2022/07/21 10:32:10;;;;;;;6.43;4.73;;;25.30;77.80;;;;;;20988637;28;20209;-69
2022/07/21 10:42:16;;;;;;;7.13;4.50;;;25.60;76.20;;;;;;20993177;28;20242;-70
2022/07/21 10:52:39;;;;;;;3.63;3.10;;;25.80;74.90;;;;;;21006242;28;20218;-70
2022/07/21 11:02:42;;;;;;;4.83;3.40;;;26.20;70.70;;;;;;21006452;28;20235;-70
2022/07/21 11:12:55;;;;;;;4.93;3.30;;;26.40;68.20;;;;;;21007351;28;20214;-70
2022/07/21 11:23:09;;;;;;;4.03;3.60;;;26.70;66.70;;;;;;21008227;28;20235;-71
2022/07/21 11:33:21;;;;;;;6.20;4.10;;;26.60;66.50;;;;;;21005569;28;20211;-69
2022/07/21 11:43:42;;;;;;;6.27;4.40;;;26.50;66.10;;;;;;20995893;28;20242;-71
2022/07/21 11:53:45;;;;;;;3.93;3.30;;;26.90;65.20;;;;;;21000179;28;20251;-70
2022/07/21 12:03:49;;;;;;;8.90;4.50;;;26.70;62.80;;;;;;21000478;28;20643;-71
2022/07/21 12:13:56;;;;;;;6.33;4.10;;;26.40;63.30;;;;;;21001296;28;20199;-71
2022/07/21 12:23:58;;;;;;;14.87;5.07;;;26.40;64.80;;;;;;20997353;28;20600;-69
2022/07/21 12:34:14;;;;;;;10.00;4.50;;;26.40;64.80;;;;;;20995672;28;20663;-70
2022/07/21 12:44:29;;;;;;;6.37;4.30;;;26.20;65.10;;;;;;20993470;28;20246;-71
2022/07/21 12:54:32;;;;;;;5.93;5.33;;;26.50;65.30;;;;;;20994678;28;20219;-70
2022/07/21 13:04:34;;;;;;;5.60;4.70;;;26.70;64.40;;;;;;20996501;28;20720;-69
2022/07/21 13:14:36;;;;;;;6.10;4.60;;;27.10;64.10;;;;;;20996408;28;20209;-70
2022/07/21 13:24:38;;;;;;;9.37;4.40;;;27.20;63.50;;;;;;20996226;28;20250;-71
2022/07/21 13:34:39;;;;;;;4.73;4.30;;;27.10;60.80;;;;;;20995369;28;20613;-71
2022/07/21 13:45:01;;;;;;;7.70;4.83;;;26.90;59.50;;;;;;20994594;28;20239;-70
2022/07/21 13:55:03;;;;;;;10.80;5.70;;;27.00;59.50;;;;;;20994655;28;20655;-69
2022/07/21 14:05:05;;;;;;;5.50;4.83;;;27.00;59.80;;;;;;20993744;28;20722;-70
2022/07/21 14:15:08;;;;;;;7.20;5.50;;;27.10;59.30;;;;;;20993680;28;20256;-70
2022/07/21 14:25:18;;;;;;;7.73;5.17;;;27.00;59.10;;;;;;20981065;28;20235;-69
2022/07/21 14:35:21;;;;;;;5.80;5.20;;;27.10;58.60;;;;;;20924385;28;20245;-69
2022/07/21 14:45:23;;;;;;;7.50;5.53;;;27.60;58.00;;;;;;20924941;28;20721;-71
2022/07/21 14:55:28;;;;;;;6.85;4.80;;;28.20;57.00;;;;;;20925354;28;20299;-71
2022/07/21 15:05:30;;;;;;;7.13;5.43;;;28.60;56.70;;;;;;20924531;28;20244;-69
2022/07/21 15:15:32;;;;;;;8.10;5.47;;;28.30;55.00;;;;;;20924105;28;20215;-72
2022/07/21 15:25:34;;;;;;;7.13;5.33;;;28.20;54.80;;;;;;20923827;28;20270;-70
2022/07/21 15:35:36;;;;;;;7.07;6.03;;;28.20;53.60;;;;;;20921426;28;20231;-70
2022/07/21 15:45:38;;;;;;;10.50;5.33;;;27.90;52.90;;;;;;20922475;28;20244;-71
2022/07/21 15:55:40;;;;;;;7.70;5.30;;;27.80;53.00;;;;;;20921467;28;20220;-72
2022/07/21 16:05:49;;;;;;;7.47;5.37;;;27.80;53.00;;;;;;20920642;28;20235;-73
2022/07/21 16:15:51;;;;;;;11.00;5.57;;;27.90;52.50;;;;;;20919717;28;20204;-72
2022/07/21 16:25:52;;;;;;;5.40;4.90;;;28.00;52.60;;;;;;20919397;28;20235;-80
2022/07/21 16:35:54;;;;;;;8.98;5.10;;;28.10;52.00;;;;;;20926242;28;20215;-67
2022/07/21 16:45:56;;;;;;;6.00;5.15;;;28.30;51.30;;;;;;20985272;28;20724;-71
2022/07/21 16:55:59;;;;;;;9.07;5.90;;;28.00;51.80;;;;;;20949693;28;20652;-71
2022/07/21 17:06:00;;;;;;;12.27;5.50;;;27.80;52.20;;;;;;20915882;28;20238;-71
2022/07/21 17:16:03;;;;;;;10.17;5.13;;;27.70;53.50;;;;;;20915034;28;20719;-74
2022/07/21 17:26:07;;;;;;;6.27;5.47;;;27.30;54.10;;;;;;20914708;28;20395;-73
2022/07/21 17:36:08;;;;;;;6.67;5.20;;;27.30;54.20;;;;;;20992718;28;20225;-73
2022/07/21 17:46:14;;;;;;;8.97;6.27;;;27.30;54.30;;;;;;20995961;28;20281;-77
2022/07/21 17:56:16;;;;;;;6.37;5.30;;;27.30;53.90;;;;;;21052860;28;20306;-78
2022/07/21 18:06:20;;;;;;;7.70;5.33;;;27.20;54.10;;;;;;21079335;28;20727;-74
2022/07/21 18:16:21;;;;;;;6.77;5.00;;;27.00;54.80;;;;;;21078566;28;20578;-76
2022/07/21 18:26:23;;;;;;;7.20;5.40;;;26.80;55.40;;;;;;21077364;28;20680;-77
2022/07/21 18:36:25;;;;;;;8.87;5.60;;;26.70;56.00;;;;;;21077405;28;20290;-77
2022/07/21 18:46:27;;;;;;;5.87;5.00;;;26.50;56.30;;;;;;21075265;28;20263;-77
2022/07/21 18:56:29;;;;;;;7.67;5.17;;;26.30;56.70;;;;;;21048666;28;20257;-78
2022/07/21 19:06:30;;;;;;;5.90;4.67;;;26.10;56.90;;;;;;20998120;28;20235;-74
2022/07/21 19:16:32;;;;;;;8.43;4.83;;;26.00;57.90;;;;;;20967225;28;20681;-74
2022/07/21 19:26:34;;;;;;;6.30;5.63;;;25.90;57.70;;;;;;21006953;28;20237;-76
2022/07/21 19:36:36;;;;;;;10.07;5.90;;;25.80;58.20;;;;;;21003248;28;20229;-78
2022/07/21 19:46:38;;;;;;;7.30;5.60;;;25.70;58.90;;;;;;21002615;28;20247;-77
2022/07/21 19:56:39;;;;;;;10.33;5.70;;;25.60;59.90;;;;;;20988647;28;20210;-74
2022/07/21 20:06:41;;;;;;;8.37;5.63;;;25.50;60.60;;;;;;20954158;28;20235;-74
2022/07/21 20:16:43;;;;;;;7.67;5.70;;;25.30;61.20;;;;;;20989197;28;20203;-74
2022/07/21 20:26:46;;;;;;;7.10;5.90;;;25.20;62.30;;;;;;21000103;28;20330;-75
2022/07/21 20:36:47;;;;;;;6.63;5.97;;;25.00;63.50;;;;;;20999402;28;20222;-74
2022/07/21 20:46:49;;;;;;;7.37;6.27;;;24.80;64.60;;;;;;20991359;28;20250;-75
2022/07/21 20:56:51;;;;;;;7.70;6.37;;;24.50;66.10;;;;;;20964272;28;20282;-74
2022/07/21 21:07:12;;;;;;;6.95;6.00;;;24.20;66.80;;;;;;20903275;28;20842;-71
2022/07/21 21:17:14;;;;;;;10.20;6.70;;;24.50;68.30;;;;;;20912573;28;20228;-75
2022/07/21 21:27:15;;;;;;;9.47;6.17;;;24.10;68.80;;;;;;20910063;28;20243;-74
2022/07/21 21:37:17;;;;;;;10.83;6.00;;;24.00;69.20;;;;;;20911395;28;20203;-70
2022/07/21 21:47:19;;;;;;;8.23;6.37;;;24.00;69.40;;;;;;20910985;28;20254;-74
2022/07/21 21:57:20;;;;;;;9.13;6.63;;;23.80;69.70;;;;;;20910176;28;20569;-70
2022/07/21 22:07:22;;;;;;;8.47;6.63;;;23.70;70.60;;;;;;20910091;28;20242;-72
2022/07/21 22:17:24;;;;;;;7.40;6.60;;;23.50;72.00;;;;;;20909602;28;20679;-73
2022/07/21 22:27:26;;;;;;;8.13;7.00;;;23.20;73.30;;;;;;20909388;28;20238;-73
2022/07/21 22:37:27;;;;;;;8.87;6.90;;;23.10;74.70;;;;;;20909318;28;20694;-72
2022/07/21 22:47:29;;;;;;;7.83;7.00;;;22.90;75.70;;;;;;20923905;28;20695;-72
2022/07/21 22:57:31;;;;;;;12.63;7.10;;;22.80;76.90;;;;;;20924077;28;20214;-73
2022/07/21 23:07:32;;;;;;;8.77;6.77;;;22.70;78.00;;;;;;20922633;28;20242;-72
2022/07/21 23:17:35;;;;;;;10.60;7.33;;;22.60;78.80;;;;;;20922837;28;20219;-72
2022/07/21 23:27:36;;;;;;;8.57;6.87;;;22.50;79.40;;;;;;20922260;28;20242;-73
2022/07/21 23:37:38;;;;;;;9.63;6.43;;;22.40;80.30;;;;;;20922544;28;20614;-73
2022/07/21 23:47:40;;;;;;;7.23;6.20;;;22.50;81.50;;;;;;20922660;28;20243;-73
2022/07/21 23:57:44;;;;;;;8.93;6.33;;;22.40;82.20;;;;;;20920788;28;20209;-73
